Time;durP1;ratioP1;P1;durP2;ratioP2;P2;SDS_P1;SDS_P2;PMS_P1;PMS_P2;Temp;Humidity;BMP_temperature;BMP_pressure;BME280_temperature;BME280_humidity;BME280_pressure;Samples;Min_cycle;Max_cycle;Signal;HPM_P1;HPM_P2
2022/08/31 00:04:01;;;;;;;0.82;0.55;;;16.70;99.90;;;;;;5019980;28;20509;-56
2022/08/31 00:06:31;;;;;;;1.33;0.45;;;16.70;99.90;;;;;;5019797;28;20053;-57
2022/08/31 00:08:58;;;;;;;1.33;0.60;;;16.60;99.90;;;;;;5020692;28;20045;-55
2022/08/31 00:11:28;;;;;;;2.13;0.70;;;16.60;99.90;;;;;;5020660;28;20045;-54
2022/08/31 00:13:57;;;;;;;3.10;0.55;;;16.60;99.90;;;;;;5020719;28;20467;-55
2022/08/31 00:16:24;;;;;;;2.65;0.60;;;16.60;99.90;;;;;;5020537;28;20431;-55
2022/08/31 00:18:51;;;;;;;2.22;0.50;;;17.10;99.90;;;;;;5020324;28;20385;-56
2022/08/31 00:21:22;;;;;;;1.77;0.70;;;16.50;99.90;;;;;;5024211;28;20045;-56
2022/08/31 00:23:48;;;;;;;1.75;0.40;;;16.50;99.90;;;;;;5024057;28;20140;-55
2022/08/31 00:26:16;;;;;;;1.33;0.60;;;16.50;99.90;;;;;;5023467;28;20134;-55
2022/08/31 00:28:41;;;;;;;0.98;0.40;;;16.50;99.90;;;;;;5024139;28;20131;-55
2022/08/31 00:31:07;;;;;;;2.35;0.45;;;16.40;99.90;;;;;;5005940;28;20081;-56
2022/08/31 00:33:35;;;;;;;0.88;0.47;;;16.30;99.90;;;;;;5023805;28;20057;-56
2022/08/31 00:36:03;;;;;;;2.00;0.45;;;16.40;99.90;;;;;;5024510;28;20136;-54
2022/08/31 00:38:29;;;;;;;1.48;0.50;;;16.30;99.90;;;;;;5023985;28;20465;-56
2022/08/31 00:40:55;;;;;;;3.35;0.55;;;16.20;99.90;;;;;;5023861;28;20124;-56
2022/08/31 00:43:55;;;;;;;1.20;0.50;;;16.20;99.90;;;;;;5023695;28;20030;-56
2022/08/31 00:46:24;;;;;;;1.95;0.50;;;16.00;99.90;;;;;;4979268;28;20061;-58
2022/08/31 00:49:15;;;;;;;2.67;0.77;;;16.10;99.90;;;;;;5023794;28;20392;-54
2022/08/31 00:51:48;;;;;;;2.53;0.70;;;16.10;99.90;;;;;;5022833;28;20136;-55
2022/08/31 00:54:16;;;;;;;1.38;0.50;;;16.00;99.90;;;;;;5023684;28;20099;-55
2022/08/31 00:56:43;;;;;;;2.33;0.50;;;16.00;99.90;;;;;;5023080;28;20041;-56
2022/08/31 00:59:14;;;;;;;0.70;0.40;;;16.00;99.90;;;;;;5022709;28;20048;-57
2022/08/31 01:01:40;;;;;;;1.95;0.60;;;15.90;99.90;;;;;;5023563;28;20429;-54
2022/08/31 01:04:06;;;;;;;3.83;0.50;;;15.80;99.90;;;;;;5023220;28;20061;-55
2022/08/31 01:06:32;;;;;;;2.33;0.52;;;15.70;99.90;;;;;;5016828;28;20653;-55
2022/08/31 01:09:01;;;;;;;1.15;0.52;;;15.60;99.90;;;;;;4996489;28;20172;-55
2022/08/31 01:11:27;;;;;;;1.55;0.60;;;15.60;99.90;;;;;;5023359;28;20136;-55
2022/08/31 01:13:54;;;;;;;0.73;0.45;;;15.50;99.90;;;;;;5005633;28;20037;-54
2022/08/31 01:16:45;;;;;;;1.75;0.52;;;15.50;99.90;;;;;;5021931;28;20037;-54
2022/08/31 01:19:57;;;;;;;1.38;0.40;;;15.40;99.90;;;;;;5023255;28;20053;-56
2022/08/31 01:22:37;;;;;;;0.43;0.40;;;15.40;99.90;;;;;;5022733;28;20847;-53
2022/08/31 01:25:03;;;;;;;0.90;0.57;;;15.40;99.90;;;;;;5023610;28;20100;-54
2022/08/31 01:27:32;;;;;;;0.50;0.40;;;15.20;99.90;;;;;;5022885;28;20137;-55
2022/08/31 01:29:59;;;;;;;2.22;0.60;;;15.20;99.90;;;;;;5020228;28;20050;-55
2022/08/31 01:32:25;;;;;;;0.80;0.40;;;15.20;99.90;;;;;;5023128;28;20103;-54
2022/08/31 01:34:51;;;;;;;1.95;0.63;;;15.20;99.90;;;;;;5022807;28;20045;-55
2022/08/31 01:37:17;;;;;;;1.88;0.50;;;15.10;99.90;;;;;;5022832;28;20084;-55
2022/08/31 01:39:42;;;;;;;1.45;0.63;;;15.20;99.90;;;;;;5021957;28;20046;-56
2022/08/31 01:42:08;;;;;;;1.48;0.60;;;15.00;99.90;;;;;;5022790;28;20496;-55
2022/08/31 01:44:34;;;;;;;1.13;0.52;;;15.00;99.90;;;;;;5022141;28;20519;-54
2022/08/31 01:47:00;;;;;;;1.30;0.50;;;15.10;99.90;;;;;;5022645;28;20052;-57
2022/08/31 01:49:26;;;;;;;2.08;0.60;;;14.90;99.90;;;;;;5022838;28;20049;-55
2022/08/31 01:51:53;;;;;;;2.40;0.60;;;15.00;99.90;;;;;;5022318;28;20054;-55
2022/08/31 01:54:21;;;;;;;1.60;0.60;;;15.00;99.90;;;;;;5022753;28;20042;-56
2022/08/31 01:56:47;;;;;;;0.65;0.50;;;15.00;99.90;;;;;;5021358;28;20056;-56
2022/08/31 01:59:15;;;;;;;2.05;0.73;;;14.90;99.90;;;;;;5004234;28;20045;-55
2022/08/31 02:01:44;;;;;;;0.90;0.50;;;14.90;99.90;;;;;;5022234;28;20212;-56
2022/08/31 02:04:13;;;;;;;2.45;0.52;;;14.90;99.90;;;;;;5021652;28;20057;-55
2022/08/31 02:06:45;;;;;;;2.72;0.68;;;14.80;99.90;;;;;;5015753;28;20110;-54
2022/08/31 02:09:12;;;;;;;2.75;0.77;;;14.80;99.90;;;;;;5004970;28;20095;-56
2022/08/31 02:11:38;;;;;;;1.42;0.50;;;14.80;99.90;;;;;;5001643;28;20045;-57
2022/08/31 02:14:05;;;;;;;1.38;0.60;;;14.70;99.90;;;;;;5002378;28;20476;-55
2022/08/31 02:16:31;;;;;;;1.30;0.60;;;14.70;99.90;;;;;;5002776;28;20095;-55
2022/08/31 02:18:57;;;;;;;1.58;0.65;;;14.70;99.90;;;;;;5001920;28;20057;-55
2022/08/31 02:21:23;;;;;;;2.90;0.60;;;14.70;99.90;;;;;;4984993;28;20054;-55
2022/08/31 02:23:49;;;;;;;1.80;0.52;;;14.70;99.90;;;;;;5002141;28;20133;-55
2022/08/31 02:26:15;;;;;;;2.65;0.80;;;14.70;99.90;;;;;;5002191;28;20163;-55
2022/08/31 02:28:40;;;;;;;2.60;0.57;;;14.70;99.90;;;;;;5001499;28;20038;-54
2022/08/31 02:31:06;;;;;;;1.63;0.60;;;14.70;99.90;;;;;;5001619;28;20053;-55
2022/08/31 02:33:32;;;;;;;1.60;0.60;;;14.70;99.90;;;;;;5002364;28;20057;-55
2022/08/31 02:35:58;;;;;;;0.98;0.50;;;14.70;99.90;;;;;;5014304;28;20527;-55
2022/08/31 02:38:23;;;;;;;1.77;0.70;;;14.70;99.90;;;;;;5003350;28;20128;-55
2022/08/31 02:40:50;;;;;;;2.53;0.55;;;14.70;99.90;;;;;;5003724;28;20183;-55
2022/08/31 02:43:16;;;;;;;2.15;0.50;;;14.70;99.90;;;;;;5021791;28;20136;-56
2022/08/31 02:45:41;;;;;;;1.98;0.60;;;14.60;99.90;;;;;;5020422;28;20049;-54
2022/08/31 02:48:09;;;;;;;3.35;0.40;;;14.60;99.90;;;;;;5021629;28;20412;-55
2022/08/31 02:50:46;;;;;;;1.48;0.85;;;14.50;99.90;;;;;;5021839;28;20049;-60
2022/08/31 02:53:14;;;;;;;1.35;0.45;;;14.60;99.90;;;;;;5020962;28;20420;-55
2022/08/31 02:55:41;;;;;;;1.55;0.43;;;14.50;99.90;;;;;;5021504;28;20124;-54
2022/08/31 02:58:09;;;;;;;0.80;0.50;;;14.50;99.90;;;;;;5020121;28;20433;-54
2022/08/31 03:00:36;;;;;;;4.45;0.85;;;14.60;99.90;;;;;;5019881;28;20056;-55
2022/08/31 03:03:02;;;;;;;0.60;0.60;;;14.40;99.90;;;;;;5021611;28;20053;-54
2022/08/31 03:05:28;;;;;;;3.08;0.60;;;14.40;99.90;;;;;;5019422;28;20095;-55
2022/08/31 03:07:54;;;;;;;1.45;0.50;;;14.40;99.90;;;;;;5010170;28;20073;-55
2022/08/31 03:10:22;;;;;;;1.55;0.70;;;14.30;99.90;;;;;;5001082;28;20526;-56
2022/08/31 03:12:48;;;;;;;1.92;0.70;;;14.30;99.90;;;;;;5001530;28;20436;-55
2022/08/31 03:15:15;;;;;;;1.35;0.60;;;14.30;99.90;;;;;;5001091;28;20042;-55
2022/08/31 03:17:41;;;;;;;1.55;0.75;;;14.20;99.90;;;;;;5000895;28;20117;-54
2022/08/31 03:20:08;;;;;;;0.80;0.50;;;14.10;99.90;;;;;;5001391;28;20160;-54
2022/08/31 03:22:35;;;;;;;1.17;0.40;;;14.10;99.90;;;;;;5001725;28;20041;-58
2022/08/31 03:25:01;;;;;;;1.58;0.50;;;14.10;99.90;;;;;;5001192;28;20042;-55
2022/08/31 03:27:30;;;;;;;2.42;0.60;;;14.00;99.90;;;;;;5001667;28;20405;-55
2022/08/31 03:29:56;;;;;;;1.98;0.50;;;14.00;99.90;;;;;;4983024;28;20099;-55
2022/08/31 03:32:23;;;;;;;1.83;0.65;;;14.00;99.90;;;;;;5001611;28;20459;-55
2022/08/31 03:34:52;;;;;;;1.70;0.60;;;13.90;99.90;;;;;;5000873;28;20065;-54
2022/08/31 03:37:20;;;;;;;2.03;0.77;;;13.90;99.90;;;;;;5001575;28;20053;-56
2022/08/31 03:39:46;;;;;;;3.25;0.98;;;13.80;99.90;;;;;;5001158;28;20104;-54
2022/08/31 03:42:12;;;;;;;1.73;0.70;;;13.80;99.90;;;;;;5001086;28;20149;-55
2022/08/31 03:44:37;;;;;;;0.75;0.55;;;13.70;99.90;;;;;;5000199;28;20038;-57
2022/08/31 03:47:03;;;;;;;1.40;0.73;;;13.60;99.90;;;;;;4984122;28;20189;-55
2022/08/31 03:49:29;;;;;;;1.63;0.70;;;13.50;99.90;;;;;;5001288;28;20885;-55
2022/08/31 03:51:55;;;;;;;1.20;0.80;;;13.50;99.90;;;;;;5001174;28;20057;-55
2022/08/31 03:54:21;;;;;;;1.55;0.80;;;13.40;99.90;;;;;;5003763;28;20504;-55
2022/08/31 03:56:46;;;;;;;2.65;0.93;;;13.40;99.90;;;;;;5004700;28;20138;-55
2022/08/31 03:59:13;;;;;;;1.38;0.90;;;13.30;99.90;;;;;;5003622;28;20057;-54
2022/08/31 04:01:39;;;;;;;1.63;0.80;;;13.30;99.90;;;;;;5004770;28;20437;-55
2022/08/31 04:04:05;;;;;;;1.83;1.08;;;13.20;99.90;;;;;;5004637;28;20085;-57
2022/08/31 04:06:31;;;;;;;1.45;0.88;;;13.10;99.90;;;;;;4994042;28;20092;-54
2022/08/31 04:08:57;;;;;;;1.63;1.00;;;13.20;99.90;;;;;;5008615;28;20037;-56
2022/08/31 04:11:26;;;;;;;3.72;0.90;;;13.10;99.90;;;;;;5004837;28;20050;-55
2022/08/31 04:13:52;;;;;;;2.33;0.90;;;13.00;99.90;;;;;;5003706;28;20057;-55
2022/08/31 04:16:20;;;;;;;1.23;0.80;;;13.00;99.90;;;;;;5004012;28;20581;-54
2022/08/31 04:18:46;;;;;;;1.60;0.95;;;13.00;99.90;;;;;;5004617;28;20396;-54
2022/08/31 04:21:21;;;;;;;1.40;0.90;;;13.00;99.90;;;;;;4986781;28;20107;-52
2022/08/31 04:23:49;;;;;;;2.38;1.00;;;13.00;99.90;;;;;;4986021;28;20521;-56
2022/08/31 04:26:28;;;;;;;1.60;1.00;;;12.90;99.90;;;;;;5004571;28;20053;-55
2022/08/31 04:28:55;;;;;;;1.98;0.90;;;12.90;99.90;;;;;;5003137;28;20272;-57
2022/08/31 04:31:22;;;;;;;1.92;1.10;;;12.90;99.90;;;;;;5004220;28;20046;-55
2022/08/31 04:33:48;;;;;;;2.60;0.77;;;12.80;99.90;;;;;;5004293;28;20536;-54
2022/08/31 04:36:18;;;;;;;1.42;0.98;;;12.80;99.90;;;;;;5004343;28;20057;-55
2022/08/31 04:38:46;;;;;;;2.95;1.02;;;12.80;99.90;;;;;;5002923;28;20050;-54
2022/08/31 04:41:14;;;;;;;2.38;0.80;;;12.70;99.90;;;;;;5003602;28;20046;-56
2022/08/31 04:43:44;;;;;;;1.98;0.95;;;12.70;99.90;;;;;;5003392;28;20045;-54
2022/08/31 04:46:10;;;;;;;1.70;0.90;;;12.80;99.90;;;;;;5003755;28;20112;-56
2022/08/31 04:48:35;;;;;;;2.83;1.00;;;12.80;99.90;;;;;;4986289;28;20500;-57
2022/08/31 04:51:05;;;;;;;2.78;1.10;;;12.80;99.90;;;;;;5004338;28;20045;-55
2022/08/31 04:53:31;;;;;;;1.80;0.90;;;12.80;99.90;;;;;;5003732;28;20122;-55
2022/08/31 04:55:57;;;;;;;2.33;0.98;;;12.80;99.90;;;;;;5003597;28;20104;-54
2022/08/31 04:58:23;;;;;;;2.38;1.05;;;12.80;99.90;;;;;;5003639;28;20038;-53
2022/08/31 05:00:51;;;;;;;2.60;0.93;;;12.80;99.90;;;;;;5003039;28;20061;-55
2022/08/31 05:03:18;;;;;;;1.38;1.05;;;12.40;99.90;;;;;;5003558;28;20053;-55
2022/08/31 05:05:49;;;;;;;2.42;0.80;;;12.80;99.90;;;;;;4987090;28;20045;-55
2022/08/31 05:08:15;;;;;;;2.13;1.10;;;12.80;99.90;;;;;;5012346;28;20052;-55
2022/08/31 05:10:41;;;;;;;2.90;1.50;;;13.30;99.90;;;;;;5002966;28;20129;-56
2022/08/31 05:13:07;;;;;;;3.20;1.15;;;12.80;99.90;;;;;;5003737;28;20050;-56
2022/08/31 05:15:33;;;;;;;2.95;1.00;;;12.90;99.90;;;;;;5003415;28;20053;-56
2022/08/31 05:17:59;;;;;;;1.88;1.00;;;12.90;99.90;;;;;;5002694;28;20042;-54
2022/08/31 05:20:25;;;;;;;2.60;1.10;;;12.90;99.90;;;;;;5003366;28;20050;-54
2022/08/31 05:22:51;;;;;;;2.83;1.10;;;13.00;99.90;;;;;;5002901;28;20085;-55
2022/08/31 05:25:16;;;;;;;1.48;0.88;;;13.00;99.90;;;;;;5003146;28;20045;-54
2022/08/31 05:27:42;;;;;;;3.50;1.08;;;13.00;99.90;;;;;;4984842;28;20128;-55
2022/08/31 05:30:08;;;;;;;1.35;0.90;;;13.10;99.90;;;;;;5002536;28;20536;-56
2022/08/31 05:32:34;;;;;;;3.03;1.00;;;13.10;99.90;;;;;;5003660;28;20401;-55
2022/08/31 05:34:59;;;;;;;2.60;0.98;;;13.20;99.90;;;;;;5002532;28;20042;-57
2022/08/31 05:37:25;;;;;;;2.80;0.90;;;13.20;99.90;;;;;;5003196;28;20050;-55
2022/08/31 05:39:51;;;;;;;2.45;0.82;;;13.50;99.90;;;;;;5002713;28;20057;-55
2022/08/31 05:42:18;;;;;;;1.77;0.90;;;13.60;99.90;;;;;;5003160;28;20069;-55
2022/08/31 05:44:44;;;;;;;2.83;1.35;;;14.00;99.90;;;;;;5001723;28;20076;-56
2022/08/31 05:47:09;;;;;;;2.65;1.20;;;14.70;99.90;;;;;;4985552;28;20041;-56
2022/08/31 05:49:35;;;;;;;1.85;0.85;;;15.10;99.90;;;;;;4985261;28;20077;-55
2022/08/31 05:52:04;;;;;;;1.10;0.82;;;15.50;99.90;;;;;;5002469;28;20053;-55
2022/08/31 05:54:35;;;;;;;1.40;0.88;;;15.60;99.90;;;;;;5002949;28;20092;-57
2022/08/31 05:57:02;;;;;;;4.93;1.45;;;15.70;99.90;;;;;;5002904;28;20053;-56
2022/08/31 05:59:29;;;;;;;0.98;0.70;;;15.60;99.90;;;;;;5001240;28;20054;-55
2022/08/31 06:01:56;;;;;;;1.65;1.00;;;15.70;99.90;;;;;;5002487;28;20520;-56
2022/08/31 06:04:21;;;;;;;2.30;0.70;;;15.90;99.90;;;;;;5002420;28;20089;-55
2022/08/31 06:06:47;;;;;;;2.35;0.80;;;16.80;99.90;;;;;;5011080;28;20079;-56
2022/08/31 06:09:13;;;;;;;1.70;0.98;;;16.50;99.90;;;;;;5003914;28;20046;-55
2022/08/31 06:11:41;;;;;;;2.60;0.88;;;16.80;99.90;;;;;;4984640;28;20053;-56
2022/08/31 06:14:08;;;;;;;1.70;0.80;;;17.00;99.90;;;;;;5001558;28;20046;-55
2022/08/31 06:16:35;;;;;;;1.20;0.80;;;17.60;99.90;;;;;;5001758;28;20095;-55
2022/08/31 06:19:03;;;;;;;1.27;0.80;;;16.90;99.90;;;;;;5002787;28;20049;-56
2022/08/31 06:21:32;;;;;;;2.33;0.70;;;17.30;99.90;;;;;;5002125;28;20042;-55
2022/08/31 06:23:58;;;;;;;1.67;0.77;;;17.70;99.90;;;;;;5000655;28;20034;-56
2022/08/31 06:26:26;;;;;;;2.00;0.88;;;18.00;99.90;;;;;;5002159;28;20049;-55
2022/08/31 06:28:54;;;;;;;3.28;0.90;;;18.00;99.90;;;;;;5001383;28;20049;-57
2022/08/31 06:31:28;;;;;;;1.90;1.00;;;18.40;99.90;;;;;;5002300;28;20589;-55
2022/08/31 06:33:54;;;;;;;1.23;0.80;;;18.40;99.90;;;;;;5002272;28;20131;-56
2022/08/31 06:36:22;;;;;;;1.00;0.70;;;18.50;99.90;;;;;;5002137;28;20034;-55
2022/08/31 06:38:48;;;;;;;2.65;0.65;;;18.80;99.90;;;;;;5001818;28;20126;-56
2022/08/31 06:41:26;;;;;;;1.30;0.80;;;18.80;99.90;;;;;;5001564;28;20689;-55
2022/08/31 06:43:53;;;;;;;1.83;0.98;;;19.00;99.90;;;;;;5001401;28;20117;-56
2022/08/31 06:46:20;;;;;;;1.50;0.75;;;19.20;99.90;;;;;;5001953;28;20584;-55
2022/08/31 06:48:47;;;;;;;1.80;0.60;;;19.30;99.90;;;;;;5001578;28;20449;-55
2022/08/31 06:51:13;;;;;;;1.30;0.70;;;19.40;99.90;;;;;;5001750;28;20548;-55
2022/08/31 06:53:41;;;;;;;1.83;0.70;;;19.80;99.90;;;;;;5001751;28;20053;-55
2022/08/31 06:56:15;;;;;;;2.08;0.85;;;19.80;99.90;;;;;;5001233;28;20053;-55
2022/08/31 06:58:41;;;;;;;3.30;0.60;;;19.80;99.90;;;;;;5000899;28;20272;-54
2022/08/31 07:01:14;;;;;;;2.35;0.70;;;19.80;99.90;;;;;;5001802;28;20547;-55
2022/08/31 07:03:42;;;;;;;1.70;0.73;;;19.90;99.90;;;;;;5001261;28;20135;-56
2022/08/31 07:06:20;;;;;;;3.75;1.00;;;19.90;99.90;;;;;;5005448;28;20123;-55
2022/08/31 07:08:50;;;;;;;2.22;0.77;;;20.10;99.90;;;;;;5006317;28;20119;-55
2022/08/31 07:11:24;;;;;;;1.08;0.60;;;19.70;99.90;;;;;;5001392;28;20091;-56
2022/08/31 07:13:52;;;;;;;2.22;0.60;;;19.90;99.90;;;;;;5000644;28;20033;-55
2022/08/31 07:16:20;;;;;;;1.38;0.50;;;19.70;99.90;;;;;;5000968;28;20046;-55
2022/08/31 07:18:48;;;;;;;1.98;0.68;;;19.80;99.90;;;;;;5001160;28;20042;-54
2022/08/31 07:21:18;;;;;;;1.48;0.77;;;20.10;99.90;;;;;;4983618;28;20136;-55
2022/08/31 07:23:45;;;;;;;3.63;0.70;;;20.20;99.90;;;;;;5000454;28;20053;-54
2022/08/31 07:26:14;;;;;;;1.70;0.50;;;20.30;99.90;;;;;;5001169;28;20638;-55
2022/08/31 07:28:42;;;;;;;1.63;0.60;;;20.40;99.90;;;;;;5001897;28;20141;-55
2022/08/31 07:31:09;;;;;;;1.85;0.60;;;20.40;99.90;;;;;;5004834;28;20053;-56
2022/08/31 07:33:38;;;;;;;2.90;1.00;;;20.30;99.90;;;;;;4987492;28;20049;-59
2022/08/31 07:36:08;;;;;;;2.97;0.68;;;20.30;99.90;;;;;;5005988;28;20046;-56
2022/08/31 07:44:03;;;;;;;2.22;0.60;;;20.30;99.90;;;;;;5023720;28;20391;-55
2022/08/31 07:46:30;;;;;;;1.20;0.77;;;20.50;99.90;;;;;;5024705;28;20124;-56
2022/08/31 07:48:58;;;;;;;2.30;0.65;;;20.70;99.90;;;;;;5024634;28;20049;-54
2022/08/31 07:51:24;;;;;;;2.08;0.52;;;20.70;99.90;;;;;;5024260;28;20045;-56
2022/08/31 07:53:52;;;;;;;6.28;0.70;;;20.60;99.90;;;;;;5024762;28;20060;-54
2022/08/31 07:56:19;;;;;;;2.08;0.60;;;20.70;99.90;;;;;;5024362;28;20072;-58
2022/08/31 07:58:46;;;;;;;1.63;0.70;;;20.60;99.90;;;;;;5023097;28;20044;-55
2022/08/31 08:01:13;;;;;;;7.90;0.70;;;20.60;99.90;;;;;;5024624;28;20425;-56
2022/08/31 08:03:43;;;;;;;1.75;0.50;;;20.80;99.90;;;;;;5018884;28;20045;-56
2022/08/31 08:06:11;;;;;;;1.42;0.50;;;20.90;99.90;;;;;;5008338;28;20081;-55
2022/08/31 08:08:39;;;;;;;1.38;0.50;;;20.90;99.90;;;;;;5010729;28;20045;-58
2022/08/31 08:11:05;;;;;;;2.45;0.60;;;21.20;99.90;;;;;;5004739;28;20042;-55
2022/08/31 08:13:31;;;;;;;3.08;0.70;;;21.10;99.90;;;;;;5004176;28;20096;-56
2022/08/31 08:15:57;;;;;;;2.55;0.70;;;21.10;99.90;;;;;;5003794;28;20049;-56
2022/08/31 08:18:23;;;;;;;2.05;0.40;;;21.10;99.90;;;;;;5004065;28;20128;-56
2022/08/31 08:20:51;;;;;;;2.67;0.50;;;21.10;99.90;;;;;;5004228;28;20041;-55
2022/08/31 08:23:18;;;;;;;3.63;0.50;;;21.20;99.90;;;;;;5003976;28;20046;-54
2022/08/31 08:25:45;;;;;;;0.80;0.43;;;21.20;99.90;;;;;;5004401;28;20046;-56
2022/08/31 08:28:19;;;;;;;2.30;0.40;;;21.40;99.90;;;;;;5003743;28;20050;-55
2022/08/31 08:30:53;;;;;;;1.90;0.43;;;21.40;99.90;;;;;;5003609;28;20045;-54
2022/08/31 08:33:20;;;;;;;1.75;0.40;;;21.50;99.90;;;;;;5004545;28;20037;-54
2022/08/31 08:35:56;;;;;;;1.58;0.30;;;21.60;99.90;;;;;;5003877;28;20037;-54
2022/08/31 08:38:24;;;;;;;2.45;0.60;;;21.60;99.90;;;;;;5005767;28;20034;-54
2022/08/31 08:40:50;;;;;;;1.25;0.47;;;21.50;99.90;;;;;;5007619;28;20052;-54
2022/08/31 08:43:18;;;;;;;1.80;0.50;;;21.20;99.90;;;;;;4985684;28;20050;-53
2022/08/31 08:45:48;;;;;;;4.40;0.60;;;21.10;99.90;;;;;;5003064;28;20068;-54
2022/08/31 08:48:16;;;;;;;3.33;0.68;;;20.80;99.90;;;;;;5003855;28;20038;-58
2022/08/31 08:50:42;;;;;;;2.25;0.70;;;20.70;99.90;;;;;;5003631;28;20042;-54
2022/08/31 08:53:11;;;;;;;1.15;0.45;;;20.70;99.90;;;;;;5003896;28;20214;-54
2022/08/31 08:55:40;;;;;;;4.63;0.50;;;21.10;99.90;;;;;;5003631;28;20050;-57
2022/08/31 08:58:09;;;;;;;1.73;0.40;;;21.30;99.90;;;;;;5003222;28;20041;-57
2022/08/31 09:00:37;;;;;;;1.77;0.55;;;21.60;99.90;;;;;;5003723;28;20123;-59
2022/08/31 09:03:15;;;;;;;3.47;0.60;;;21.60;99.90;;;;;;4986310;28;20081;-58
2022/08/31 09:05:58;;;;;;;1.35;0.60;;;21.20;99.90;;;;;;5005722;28;20041;-58
2022/08/31 09:08:49;;;;;;;5.72;0.60;;;21.20;99.90;;;;;;5012450;28;20038;-58
2022/08/31 09:11:27;;;;;;;3.83;0.50;;;21.60;99.90;;;;;;5002905;28;20115;-58
2022/08/31 09:13:59;;;;;;;1.88;0.52;;;21.70;99.90;;;;;;5002285;28;20480;-58
2022/08/31 09:16:50;;;;;;;1.25;0.50;;;21.70;99.90;;;;;;5003398;28;20743;-58
2022/08/31 09:19:17;;;;;;;2.20;0.90;;;21.50;99.90;;;;;;5002913;28;20046;-58
2022/08/31 09:21:56;;;;;;;1.00;0.60;;;21.70;99.90;;;;;;5002767;28;20143;-58
2022/08/31 09:24:29;;;;;;;1.38;0.50;;;21.90;99.90;;;;;;5003023;28;20432;-58
2022/08/31 09:27:17;;;;;;;0.70;0.50;;;21.70;99.90;;;;;;5002677;28;20528;-58
2022/08/31 09:29:56;;;;;;;0.98;0.50;;;21.90;99.90;;;;;;5001924;28;20049;-58
2022/08/31 09:32:30;;;;;;;3.58;0.60;;;22.10;99.90;;;;;;5003036;28;20132;-58
2022/08/31 09:35:00;;;;;;;1.40;0.50;;;22.10;99.90;;;;;;5002708;28;20058;-58
2022/08/31 09:37:47;;;;;;;1.65;0.50;;;22.30;99.90;;;;;;5002861;28;20254;-58
2022/08/31 09:40:19;;;;;;;2.38;0.50;;;22.10;99.90;;;;;;5002533;28;20054;-57
2022/08/31 09:42:59;;;;;;;1.98;0.73;;;22.60;99.90;;;;;;5002334;28;20527;-59
2022/08/31 09:45:34;;;;;;;2.50;0.80;;;22.70;99.90;;;;;;5002189;28;20046;-58
2022/08/31 09:48:02;;;;;;;1.30;0.40;;;22.70;99.90;;;;;;5002513;28;20807;-58
2022/08/31 09:50:36;;;;;;;0.50;0.40;;;22.90;99.90;;;;;;5002010;28;20061;-58
2022/08/31 09:56:20;;;;;;;3.10;0.43;;;22.70;99.90;;;;;;5001922;28;20100;-58
2022/08/31 09:59:03;;;;;;;0.35;0.30;;;22.80;99.90;;;;;;5001466;28;20045;-57
2022/08/31 10:01:43;;;;;;;1.05;0.50;;;23.00;99.90;;;;;;5002155;28;20073;-58
2022/08/31 10:04:26;;;;;;;2.28;0.45;;;23.20;99.90;;;;;;5001979;28;20120;-58
2022/08/31 10:07:29;;;;;;;0.82;0.40;;;23.40;99.90;;;;;;4990252;28;20057;-58
2022/08/31 10:10:00;;;;;;;2.95;0.50;;;23.00;99.90;;;;;;4985085;28;20050;-59
2022/08/31 10:12:54;;;;;;;3.83;0.47;;;23.30;99.90;;;;;;5002057;28;20082;-58
2022/08/31 10:15:31;;;;;;;1.85;0.55;;;23.00;99.90;;;;;;5001460;28;20042;-58
2022/08/31 10:18:16;;;;;;;1.67;0.40;;;23.30;99.90;;;;;;5002349;28;20124;-58
2022/08/31 10:20:47;;;;;;;;;;;23.90;99.90;;;;;;5002093;28;20045;-57
2022/08/31 10:23:37;;;;;;;1.52;0.60;;;24.00;99.90;;;;;;5002022;28;20029;-57
2022/08/31 10:26:30;;;;;;;2.53;0.55;;;24.00;99.90;;;;;;5002207;28;20386;-58
2022/08/31 10:28:58;;;;;;;1.17;0.50;;;24.00;99.90;;;;;;4983083;28;20073;-58
2022/08/31 10:31:33;;;;;;;1.75;0.60;;;23.80;99.90;;;;;;5001898;28;20101;-57
2022/08/31 10:36:48;;;;;;;2.15;0.40;;;23.60;99.90;;;;;;5001470;28;19928;-57
2022/08/31 10:39:36;;;;;;;4.05;0.40;;;24.10;99.90;;;;;;5001613;28;20073;-51
2022/08/31 10:42:08;;;;;;;0.75;0.40;;;24.50;99.90;;;;;;5001214;28;20535;-58
2022/08/31 10:44:43;;;;;;;2.40;0.50;;;24.30;99.90;;;;;;5001730;28;20554;-56
2022/08/31 10:47:11;;;;;;;5.20;0.70;;;24.10;99.90;;;;;;5000921;28;20052;-58
2022/08/31 10:49:37;;;;;;;4.72;0.80;;;24.30;99.90;;;;;;5001760;28;20040;-58
2022/08/31 10:52:16;;;;;;;3.13;0.60;;;24.40;99.90;;;;;;5002203;28;20583;-57
2022/08/31 10:55:27;;;;;;;3.45;0.50;;;24.90;99.90;;;;;;5001006;28;20224;-57
2022/08/31 10:58:25;;;;;;;2.38;0.50;;;24.70;99.90;;;;;;4953151;28;20464;-58
2022/08/31 11:01:30;;;;;;;0.80;0.40;;;24.70;99.90;;;;;;5000968;28;20107;-57
2022/08/31 11:04:27;;;;;;;1.48;0.73;;;24.60;99.90;;;;;;5001072;28;20211;-58
2022/08/31 11:07:03;;;;;;;3.28;0.80;;;24.90;99.90;;;;;;5009999;28;20474;-58
2022/08/31 11:09:53;;;;;;;2.85;0.60;;;24.90;99.90;;;;;;5000608;28;20053;-57
2022/08/31 11:12:26;;;;;;;2.80;0.77;;;24.90;99.90;;;;;;5001227;28;20578;-57
2022/08/31 11:15:12;;;;;;;0.80;0.50;;;25.10;99.90;;;;;;4999957;28;20100;-57
2022/08/31 11:17:48;;;;;;;2.75;0.50;;;25.10;99.90;;;;;;5001297;28;20046;-58
2022/08/31 11:20:18;;;;;;;1.80;0.55;;;24.80;99.90;;;;;;5000796;28;20133;-58
2022/08/31 11:23:07;;;;;;;2.17;0.80;;;25.10;99.90;;;;;;5000786;28;20046;-57
2022/08/31 11:25:51;;;;;;;2.35;0.80;;;24.90;99.90;;;;;;5000353;28;20099;-57
2022/08/31 11:28:32;;;;;;;0.98;0.60;;;25.10;99.90;;;;;;4982926;28;20046;-57
2022/08/31 11:31:13;;;;;;;3.80;1.27;;;25.10;99.90;;;;;;5000079;28;20038;-57
2022/08/31 11:33:49;;;;;;;8.57;1.80;;;24.90;99.90;;;;;;5001163;28;20042;-57
2022/08/31 11:36:48;;;;;;;1.73;0.70;;;25.00;99.90;;;;;;5000714;28;20045;-58
2022/08/31 11:39:25;;;;;;;2.25;0.77;;;25.00;99.90;;;;;;5000661;28;20108;-57
2022/08/31 11:41:52;;;;;;;0.82;0.50;;;24.60;99.90;;;;;;5000374;28;20042;-57
2022/08/31 11:44:35;;;;;;;1.67;0.90;;;24.80;99.90;;;;;;5000524;28;20092;-55
2022/08/31 11:47:35;;;;;;;0.88;0.50;;;24.70;99.90;;;;;;5011096;28;20131;-55
2022/08/31 11:50:26;;;;;;;0.90;0.52;;;24.60;99.90;;;;;;5000521;28;20045;-56
2022/08/31 11:52:55;;;;;;;2.63;0.70;;;24.40;99.90;;;;;;5019977;28;20038;-56
2022/08/31 11:55:24;;;;;;;1.52;0.63;;;24.50;99.90;;;;;;5019319;28;20093;-55
2022/08/31 11:58:10;;;;;;;1.60;0.55;;;24.60;99.90;;;;;;5001537;28;20037;-56
2022/08/31 12:01:02;;;;;;;1.73;0.60;;;24.40;99.90;;;;;;5020263;28;20042;-56
2022/08/31 12:04:02;;;;;;;6.78;0.80;;;24.50;99.90;;;;;;5002805;28;20080;-56
2022/08/31 12:06:28;;;;;;;1.42;0.75;;;24.70;99.90;;;;;;5011695;28;20085;-53
2022/08/31 12:09:18;;;;;;;2.92;0.73;;;24.30;99.90;;;;;;5004744;28;20044;-57
2022/08/31 12:12:12;;;;;;;3.22;1.00;;;24.50;99.90;;;;;;5000633;28;20490;-57
2022/08/31 12:14:55;;;;;;;2.92;0.50;;;24.50;99.90;;;;;;4999031;28;20056;-58
2022/08/31 12:17:24;;;;;;;1.58;0.60;;;24.40;99.90;;;;;;4986630;28;20132;-57
2022/08/31 12:19:59;;;;;;;3.03;0.80;;;24.20;99.90;;;;;;5003190;28;20057;-57
2022/08/31 12:25:42;;;;;;;1.88;0.77;;;24.50;99.90;;;;;;5003326;28;20222;-57
2022/08/31 12:28:51;;;;;;;1.05;0.50;;;24.90;99.90;;;;;;5002429;28;20049;-57
2022/08/31 12:31:17;;;;;;;1.35;0.60;;;24.80;99.90;;;;;;5003169;28;20050;-57
2022/08/31 12:33:58;;;;;;;1.15;0.60;;;24.90;99.90;;;;;;5002800;28;20045;-57
2022/08/31 12:36:30;;;;;;;2.20;0.52;;;24.70;99.90;;;;;;5003593;28;20452;-57
2022/08/31 12:39:29;;;;;;;1.05;0.40;;;25.00;99.90;;;;;;5003098;28;20405;-57
2022/08/31 12:42:03;;;;;;;2.25;0.55;;;24.90;99.90;;;;;;4970761;28;20412;-57
2022/08/31 12:44:44;;;;;;;1.90;0.60;;;25.00;99.90;;;;;;5002624;28;20034;-57
2022/08/31 12:47:36;;;;;;;2.65;0.60;;;24.80;99.90;;;;;;4985985;28;20042;-57
2022/08/31 12:50:02;;;;;;;1.15;0.63;;;25.10;99.90;;;;;;5003816;28;20124;-58
2022/08/31 12:52:42;;;;;;;2.35;0.60;;;25.10;99.90;;;;;;5003750;28;20137;-57
2022/08/31 12:55:11;;;;;;;1.58;0.60;;;25.00;99.90;;;;;;4985582;28;20058;-57
2022/08/31 12:58:15;;;;;;;1.35;0.60;;;24.90;99.90;;;;;;5002352;28;20128;-58
2022/08/31 13:00:42;;;;;;;1.55;0.80;;;24.90;99.90;;;;;;4994045;28;20409;-57
2022/08/31 13:03:28;;;;;;;0.75;0.50;;;24.80;99.90;;;;;;5003847;28;20565;-57
2022/08/31 13:06:00;;;;;;;0.75;0.50;;;24.70;99.90;;;;;;5007952;28;20057;-57
2022/08/31 13:08:26;;;;;;;1.98;0.60;;;25.10;99.90;;;;;;5008483;28;20076;-57
2022/08/31 13:10:52;;;;;;;2.00;0.60;;;25.00;99.90;;;;;;5008182;28;20076;-57
2022/08/31 13:13:27;;;;;;;0.98;0.50;;;25.10;99.90;;;;;;5008781;28;20046;-57
2022/08/31 13:16:03;;;;;;;1.15;0.40;;;25.10;99.90;;;;;;5009078;28;20500;-57
2022/08/31 13:18:29;;;;;;;1.05;0.50;;;25.10;99.90;;;;;;5008271;28;20404;-57
2022/08/31 13:21:02;;;;;;;2.47;0.60;;;24.80;99.90;;;;;;5008449;28;20045;-57
2022/08/31 13:23:37;;;;;;;1.77;0.50;;;24.80;99.90;;;;;;5008497;28;20052;-57
2022/08/31 13:26:13;;;;;;;3.25;0.65;;;24.70;99.90;;;;;;5007958;28;20046;-57
2022/08/31 13:28:40;;;;;;;1.65;0.60;;;24.80;99.90;;;;;;4990024;28;20053;-58